createdAt,value
2022-11-16T00:01:16.264Z,6.05
2022-11-16T00:03:43.042Z,5.93
2022-11-16T00:06:11.687Z,6.00
2022-11-16T00:08:44.759Z,6.30
2022-11-16T00:11:11.440Z,5.63
2022-11-16T00:13:39.382Z,5.88
2022-11-16T00:16:07.719Z,5.82
2022-11-16T00:18:35.093Z,6.00
2022-11-16T00:21:04.068Z,6.10
2022-11-16T00:23:31.082Z,5.35
2022-11-16T00:26:04.132Z,6.00
2022-11-16T00:28:31.027Z,6.18
2022-11-16T00:31:02.574Z,5.70
2022-11-16T00:33:29.649Z,5.93
2022-11-16T00:35:56.636Z,5.90
2022-11-16T00:38:23.720Z,6.10
2022-11-16T00:40:50.423Z,5.53
2022-11-16T00:43:17.140Z,5.40
2022-11-16T00:45:44.381Z,5.93
2022-11-16T00:48:11.726Z,5.93
2022-11-16T00:50:38.475Z,6.03
2022-11-16T00:53:06.419Z,5.63
2022-11-16T00:55:34.135Z,5.82
2022-11-16T00:58:02.347Z,6.55
2022-11-16T01:00:29.265Z,5.53
2022-11-16T01:02:56.082Z,6.20
2022-11-16T01:05:24.532Z,5.35
2022-11-16T01:07:51.791Z,5.22
2022-11-16T01:10:21.371Z,5.57
2022-11-16T01:12:49.929Z,4.75
2022-11-16T01:15:18.528Z,4.60
2022-11-16T01:17:45.348Z,5.43
2022-11-16T01:20:15.511Z,5.63
2022-11-16T01:22:42.918Z,5.43
2022-11-16T01:25:10.832Z,5.03
2022-11-16T01:27:37.930Z,5.07
2022-11-16T01:30:10.329Z,5.57
2022-11-16T01:32:41.193Z,4.95
2022-11-16T01:35:08.271Z,4.78
2022-11-16T01:37:35.043Z,5.07
2022-11-16T01:40:02.498Z,5.00
2022-11-16T01:42:30.941Z,4.85
2022-11-16T01:45:07.848Z,4.40
2022-11-16T01:47:34.824Z,4.78
2022-11-16T01:50:15.017Z,4.28
2022-11-16T01:52:58.829Z,4.78
2022-11-16T01:55:31.929Z,4.25
2022-11-16T01:58:15.456Z,4.55
2022-11-16T02:00:42.451Z,5.07
2022-11-16T02:03:38.622Z,4.53
2022-11-16T02:06:20.121Z,4.25
2022-11-16T02:09:31.030Z,4.60
2022-11-16T02:12:26.741Z,4.55
2022-11-16T02:14:58.944Z,4.57
2022-11-16T02:17:25.583Z,4.68
2022-11-16T02:20:25.786Z,4.78
2022-11-16T02:23:14.349Z,5.07
2022-11-16T02:26:01.093Z,4.93
2022-11-16T02:28:52.201Z,5.38
2022-11-16T02:31:27.866Z,5.10
2022-11-16T02:33:59.121Z,6.00
2022-11-16T02:36:26.361Z,5.30
2022-11-16T02:39:05.140Z,5.30
2022-11-16T02:41:38.349Z,5.57
2022-11-16T02:44:12.982Z,5.93
2022-11-16T02:46:43.783Z,5.07
2022-11-16T02:49:16.679Z,5.43
